sensor_id;sensor_type;location;lat;lon;timestamp;P1;durP1;ratioP1;P2;durP2;ratioP2
14776;SDS011;7480;43.124;25.686;2023-04-25T00:01:05;8.47;;;7.37;;
14776;SDS011;7480;43.124;25.686;2023-04-25T00:03:32;8.87;;;7.87;;
14776;SDS011;7480;43.124;25.686;2023-04-25T00:05:59;12.47;;;8.93;;
14776;SDS011;7480;43.124;25.686;2023-04-25T00:08:31;10.73;;;9.33;;
14776;SDS011;7480;43.124;25.686;2023-04-25T00:10:58;13.47;;;9.27;;
14776;SDS011;7480;43.124;25.686;2023-04-25T00:13:25;11.03;;;9.73;;
14776;SDS011;7480;43.124;25.686;2023-04-25T00:15:52;12.27;;;10.63;;
14776;SDS011;7480;43.124;25.686;2023-04-25T00:18:22;13.37;;;10.70;;
14776;SDS011;7480;43.124;25.686;2023-04-25T00:20:49;16.83;;;13.10;;
14776;SDS011;7480;43.124;25.686;2023-04-25T00:23:16;16.37;;;14.50;;
14776;SDS011;7480;43.124;25.686;2023-04-25T00:25:44;15.50;;;13.90;;
14776;SDS011;7480;43.124;25.686;2023-04-25T00:28:12;18.77;;;14.47;;
14776;SDS011;7480;43.124;25.686;2023-04-25T00:30:39;17.13;;;13.87;;
14776;SDS011;7480;43.124;25.686;2023-04-25T00:33:06;16.33;;;11.20;;
14776;SDS011;7480;43.124;25.686;2023-04-25T00:35:33;12.53;;;10.60;;
14776;SDS011;7480;43.124;25.686;2023-04-25T00:38:00;14.10;;;11.87;;
14776;SDS011;7480;43.124;25.686;2023-04-25T00:40:27;12.40;;;11.07;;
14776;SDS011;7480;43.124;25.686;2023-04-25T00:42:54;12.83;;;11.40;;
14776;SDS011;7480;43.124;25.686;2023-04-25T00:45:21;16.87;;;12.63;;
14776;SDS011;7480;43.124;25.686;2023-04-25T00:47:47;13.03;;;11.57;;
14776;SDS011;7480;43.124;25.686;2023-04-25T00:50:14;12.60;;;11.27;;
14776;SDS011;7480;43.124;25.686;2023-04-25T00:52:41;14.13;;;11.67;;
14776;SDS011;7480;43.124;25.686;2023-04-25T00:55:10;14.10;;;12.03;;
14776;SDS011;7480;43.124;25.686;2023-04-25T00:57:37;14.77;;;11.97;;
14776;SDS011;7480;43.124;25.686;2023-04-25T01:00:05;12.97;;;11.13;;
14776;SDS011;7480;43.124;25.686;2023-04-25T01:02:44;13.13;;;11.70;;
14776;SDS011;7480;43.124;25.686;2023-04-25T01:05:11;14.83;;;11.23;;
14776;SDS011;7480;43.124;25.686;2023-04-25T01:07:38;14.20;;;12.03;;
14776;SDS011;7480;43.124;25.686;2023-04-25T01:10:05;14.23;;;12.20;;
14776;SDS011;7480;43.124;25.686;2023-04-25T01:12:33;13.97;;;11.47;;
14776;SDS011;7480;43.124;25.686;2023-04-25T01:15:00;13.40;;;10.73;;
14776;SDS011;7480;43.124;25.686;2023-04-25T01:17:27;13.63;;;11.40;;
14776;SDS011;7480;43.124;25.686;2023-04-25T01:19:54;15.90;;;11.83;;
14776;SDS011;7480;43.124;25.686;2023-04-25T01:22:21;13.63;;;11.33;;
14776;SDS011;7480;43.124;25.686;2023-04-25T01:24:48;17.00;;;12.27;;
14776;SDS011;7480;43.124;25.686;2023-04-25T01:27:14;12.90;;;10.73;;
14776;SDS011;7480;43.124;25.686;2023-04-25T01:29:41;13.50;;;10.73;;
14776;SDS011;7480;43.124;25.686;2023-04-25T01:32:08;12.50;;;10.77;;
14776;SDS011;7480;43.124;25.686;2023-04-25T01:34:36;14.53;;;10.90;;
14776;SDS011;7480;43.124;25.686;2023-04-25T01:37:02;12.93;;;10.63;;
14776;SDS011;7480;43.124;25.686;2023-04-25T01:39:29;12.90;;;10.77;;
14776;SDS011;7480;43.124;25.686;2023-04-25T01:41:56;11.60;;;10.23;;
14776;SDS011;7480;43.124;25.686;2023-04-25T01:44:23;13.20;;;10.57;;
14776;SDS011;7480;43.124;25.686;2023-04-25T01:46:49;11.57;;;10.03;;
14776;SDS011;7480;43.124;25.686;2023-04-25T01:49:16;15.53;;;11.70;;
14776;SDS011;7480;43.124;25.686;2023-04-25T01:51:43;12.07;;;10.30;;
14776;SDS011;7480;43.124;25.686;2023-04-25T01:54:10;12.50;;;9.97;;
14776;SDS011;7480;43.124;25.686;2023-04-25T01:56:37;11.83;;;10.50;;
14776;SDS011;7480;43.124;25.686;2023-04-25T01:59:04;10.80;;;9.70;;
14776;SDS011;7480;43.124;25.686;2023-04-25T02:01:32;10.27;;;8.93;;
14776;SDS011;7480;43.124;25.686;2023-04-25T02:03:59;10.13;;;8.60;;
14776;SDS011;7480;43.124;25.686;2023-04-25T02:06:26;12.20;;;9.23;;
14776;SDS011;7480;43.124;25.686;2023-04-25T02:08:52;10.10;;;8.40;;
14776;SDS011;7480;43.124;25.686;2023-04-25T02:11:19;8.97;;;7.83;;
14776;SDS011;7480;43.124;25.686;2023-04-25T02:13:46;12.33;;;8.07;;
14776;SDS011;7480;43.124;25.686;2023-04-25T02:16:13;8.97;;;8.07;;
14776;SDS011;7480;43.124;25.686;2023-04-25T02:18:40;8.33;;;7.43;;
14776;SDS011;7480;43.124;25.686;2023-04-25T02:21:06;9.53;;;7.60;;
14776;SDS011;7480;43.124;25.686;2023-04-25T02:23:33;8.90;;;7.80;;
14776;SDS011;7480;43.124;25.686;2023-04-25T02:26:00;8.27;;;7.37;;
14776;SDS011;7480;43.124;25.686;2023-04-25T02:28:26;8.37;;;7.20;;
14776;SDS011;7480;43.124;25.686;2023-04-25T02:30:53;9.77;;;7.20;;
14776;SDS011;7480;43.124;25.686;2023-04-25T02:33:20;9.00;;;7.13;;
14776;SDS011;7480;43.124;25.686;2023-04-25T02:35:47;9.00;;;7.03;;
14776;SDS011;7480;43.124;25.686;2023-04-25T02:38:14;10.70;;;7.73;;
14776;SDS011;7480;43.124;25.686;2023-04-25T02:40:40;11.37;;;7.90;;
14776;SDS011;7480;43.124;25.686;2023-04-25T02:43:07;8.80;;;7.40;;
14776;SDS011;7480;43.124;25.686;2023-04-25T02:45:34;14.97;;;9.23;;
14776;SDS011;7480;43.124;25.686;2023-04-25T02:48:02;18.27;;;12.33;;
14776;SDS011;7480;43.124;25.686;2023-04-25T02:50:29;8.87;;;7.93;;
14776;SDS011;7480;43.124;25.686;2023-04-25T02:52:56;12.70;;;9.00;;
14776;SDS011;7480;43.124;25.686;2023-04-25T02:55:22;11.63;;;8.67;;
14776;SDS011;7480;43.124;25.686;2023-04-25T02:57:52;10.97;;;9.27;;
14776;SDS011;7480;43.124;25.686;2023-04-25T03:00:18;11.27;;;8.80;;
14776;SDS011;7480;43.124;25.686;2023-04-25T03:02:45;10.43;;;9.03;;
14776;SDS011;7480;43.124;25.686;2023-04-25T03:05:12;10.20;;;8.03;;
14776;SDS011;7480;43.124;25.686;2023-04-25T03:07:39;9.67;;;8.10;;
14776;SDS011;7480;43.124;25.686;2023-04-25T03:10:06;9.93;;;8.17;;
14776;SDS011;7480;43.124;25.686;2023-04-25T03:12:33;10.03;;;8.07;;
14776;SDS011;7480;43.124;25.686;2023-04-25T03:15:00;9.23;;;8.03;;
14776;SDS011;7480;43.124;25.686;2023-04-25T03:17:27;9.73;;;7.40;;
14776;SDS011;7480;43.124;25.686;2023-04-25T03:19:54;9.57;;;7.17;;
14776;SDS011;7480;43.124;25.686;2023-04-25T03:22:21;10.70;;;7.07;;
14776;SDS011;7480;43.124;25.686;2023-04-25T03:24:47;10.10;;;7.13;;
14776;SDS011;7480;43.124;25.686;2023-04-25T03:27:14;8.23;;;7.03;;
14776;SDS011;7480;43.124;25.686;2023-04-25T03:29:41;9.33;;;6.93;;
14776;SDS011;7480;43.124;25.686;2023-04-25T03:32:08;7.37;;;6.20;;
14776;SDS011;7480;43.124;25.686;2023-04-25T03:34:35;7.70;;;6.83;;
14776;SDS011;7480;43.124;25.686;2023-04-25T03:37:01;8.70;;;7.27;;
14776;SDS011;7480;43.124;25.686;2023-04-25T03:39:28;8.97;;;6.90;;
14776;SDS011;7480;43.124;25.686;2023-04-25T03:41:55;7.37;;;6.53;;
14776;SDS011;7480;43.124;25.686;2023-04-25T03:44:21;7.30;;;6.27;;
14776;SDS011;7480;43.124;25.686;2023-04-25T03:46:48;6.73;;;6.03;;
14776;SDS011;7480;43.124;25.686;2023-04-25T03:49:14;7.17;;;6.47;;
14776;SDS011;7480;43.124;25.686;2023-04-25T03:51:44;7.30;;;6.57;;
14776;SDS011;7480;43.124;25.686;2023-04-25T03:54:11;8.63;;;6.47;;
14776;SDS011;7480;43.124;25.686;2023-04-25T03:56:38;7.53;;;6.50;;
14776;SDS011;7480;43.124;25.686;2023-04-25T03:59:05;12.80;;;7.40;;
14776;SDS011;7480;43.124;25.686;2023-04-25T04:01:32;8.17;;;6.90;;
14776;SDS011;7480;43.124;25.686;2023-04-25T04:03:58;8.00;;;6.60;;
14776;SDS011;7480;43.124;25.686;2023-04-25T04:06:25;8.10;;;7.17;;
14776;SDS011;7480;43.124;25.686;2023-04-25T04:08:52;8.27;;;6.67;;
14776;SDS011;7480;43.124;25.686;2023-04-25T04:11:19;8.30;;;6.63;;
14776;SDS011;7480;43.124;25.686;2023-04-25T04:13:46;10.70;;;7.33;;
14776;SDS011;7480;43.124;25.686;2023-04-25T04:16:13;8.50;;;6.57;;
14776;SDS011;7480;43.124;25.686;2023-04-25T04:18:40;5.50;;;4.97;;
14776;SDS011;7480;43.124;25.686;2023-04-25T04:21:07;6.00;;;5.40;;
14776;SDS011;7480;43.124;25.686;2023-04-25T04:23:34;6.53;;;5.17;;
14776;SDS011;7480;43.124;25.686;2023-04-25T04:26:04;6.10;;;5.10;;
14776;SDS011;7480;43.124;25.686;2023-04-25T04:28:33;5.77;;;5.00;;
14776;SDS011;7480;43.124;25.686;2023-04-25T04:31:00;5.60;;;4.70;;
14776;SDS011;7480;43.124;25.686;2023-04-25T04:33:27;6.27;;;5.23;;
14776;SDS011;7480;43.124;25.686;2023-04-25T04:35:54;7.23;;;5.43;;
14776;SDS011;7480;43.124;25.686;2023-04-25T04:38:21;6.60;;;5.33;;
14776;SDS011;7480;43.124;25.686;2023-04-25T04:40:48;6.83;;;5.33;;
14776;SDS011;7480;43.124;25.686;2023-04-25T04:43:15;6.03;;;4.63;;
14776;SDS011;7480;43.124;25.686;2023-04-25T04:45:43;5.00;;;4.43;;
14776;SDS011;7480;43.124;25.686;2023-04-25T04:48:10;5.53;;;4.20;;
14776;SDS011;7480;43.124;25.686;2023-04-25T04:50:40;5.00;;;4.40;;
14776;SDS011;7480;43.124;25.686;2023-04-25T04:53:07;4.50;;;4.10;;
14776;SDS011;7480;43.124;25.686;2023-04-25T04:55:33;5.50;;;5.00;;
14776;SDS011;7480;43.124;25.686;2023-04-25T04:58:00;4.43;;;4.03;;
14776;SDS011;7480;43.124;25.686;2023-04-25T05:00:27;4.77;;;4.20;;
14776;SDS011;7480;43.124;25.686;2023-04-25T05:02:56;8.50;;;3.93;;
14776;SDS011;7480;43.124;25.686;2023-04-25T05:05:23;4.17;;;3.40;;
14776;SDS011;7480;43.124;25.686;2023-04-25T05:07:49;5.03;;;3.90;;
14776;SDS011;7480;43.124;25.686;2023-04-25T05:10:17;3.93;;;3.53;;
14776;SDS011;7480;43.124;25.686;2023-04-25T05:12:44;4.60;;;4.00;;
14776;SDS011;7480;43.124;25.686;2023-04-25T05:15:11;6.23;;;4.00;;
14776;SDS011;7480;43.124;25.686;2023-04-25T05:17:38;5.00;;;3.43;;
14776;SDS011;7480;43.124;25.686;2023-04-25T05:20:06;5.07;;;4.03;;
14776;SDS011;7480;43.124;25.686;2023-04-25T05:22:35;3.83;;;3.43;;
14776;SDS011;7480;43.124;25.686;2023-04-25T05:25:02;6.53;;;3.83;;
14776;SDS011;7480;43.124;25.686;2023-04-25T05:27:29;4.43;;;4.03;;
14776;SDS011;7480;43.124;25.686;2023-04-25T05:29:56;3.83;;;3.27;;
14776;SDS011;7480;43.124;25.686;2023-04-25T05:32:22;4.67;;;3.87;;
14776;SDS011;7480;43.124;25.686;2023-04-25T05:34:51;4.80;;;3.57;;
14776;SDS011;7480;43.124;25.686;2023-04-25T05:37:18;5.30;;;3.57;;
14776;SDS011;7480;43.124;25.686;2023-04-25T05:39:44;5.33;;;3.50;;
14776;SDS011;7480;43.124;25.686;2023-04-25T05:42:11;3.80;;;2.93;;
14776;SDS011;7480;43.124;25.686;2023-04-25T05:44:38;3.57;;;2.83;;
14776;SDS011;7480;43.124;25.686;2023-04-25T05:47:04;4.37;;;3.43;;
14776;SDS011;7480;43.124;25.686;2023-04-25T05:49:31;3.30;;;3.00;;
14776;SDS011;7480;43.124;25.686;2023-04-25T05:51:58;4.23;;;3.47;;
14776;SDS011;7480;43.124;25.686;2023-04-25T05:54:24;5.20;;;3.10;;
14776;SDS011;7480;43.124;25.686;2023-04-25T05:56:51;3.30;;;3.00;;
14776;SDS011;7480;43.124;25.686;2023-04-25T05:59:18;4.07;;;2.97;;
14776;SDS011;7480;43.124;25.686;2023-04-25T06:01:44;5.90;;;3.20;;
14776;SDS011;7480;43.124;25.686;2023-04-25T06:04:11;3.37;;;2.70;;
14776;SDS011;7480;43.124;25.686;2023-04-25T06:06:39;5.30;;;2.85;;
14776;SDS011;7480;43.124;25.686;2023-04-25T06:09:05;4.00;;;2.63;;
14776;SDS011;7480;43.124;25.686;2023-04-25T06:11:32;4.43;;;2.60;;
14776;SDS011;7480;43.124;25.686;2023-04-25T06:13:59;5.43;;;2.33;;
14776;SDS011;7480;43.124;25.686;2023-04-25T06:16:25;2.83;;;2.63;;
14776;SDS011;7480;43.124;25.686;2023-04-25T06:18:52;2.60;;;2.40;;
14776;SDS011;7480;43.124;25.686;2023-04-25T06:21:19;3.23;;;2.47;;
14776;SDS011;7480;43.124;25.686;2023-04-25T06:23:46;3.37;;;2.47;;
14776;SDS011;7480;43.124;25.686;2023-04-25T06:26:13;5.10;;;3.00;;
14776;SDS011;7480;43.124;25.686;2023-04-25T06:28:39;3.27;;;2.93;;
14776;SDS011;7480;43.124;25.686;2023-04-25T06:31:06;4.87;;;2.87;;
14776;SDS011;7480;43.124;25.686;2023-04-25T06:33:33;4.67;;;2.60;;
14776;SDS011;7480;43.124;25.686;2023-04-25T06:36:00;5.27;;;2.50;;
14776;SDS011;7480;43.124;25.686;2023-04-25T06:38:26;4.87;;;2.57;;
14776;SDS011;7480;43.124;25.686;2023-04-25T06:40:53;3.77;;;2.47;;
14776;SDS011;7480;43.124;25.686;2023-04-25T06:43:20;2.87;;;2.57;;
14776;SDS011;7480;43.124;25.686;2023-04-25T06:45:46;3.73;;;2.50;;
14776;SDS011;7480;43.124;25.686;2023-04-25T06:48:13;2.47;;;2.20;;
14776;SDS011;7480;43.124;25.686;2023-04-25T06:50:40;3.20;;;2.40;;
14776;SDS011;7480;43.124;25.686;2023-04-25T06:53:07;4.73;;;2.70;;
14776;SDS011;7480;43.124;25.686;2023-04-25T06:55:35;3.90;;;2.20;;
14776;SDS011;7480;43.124;25.686;2023-04-25T06:58:01;3.83;;;2.17;;
14776;SDS011;7480;43.124;25.686;2023-04-25T07:00:28;2.37;;;2.10;;
14776;SDS011;7480;43.124;25.686;2023-04-25T07:02:55;3.03;;;2.40;;
14776;SDS011;7480;43.124;25.686;2023-04-25T07:05:22;3.20;;;2.27;;
14776;SDS011;7480;43.124;25.686;2023-04-25T07:07:48;2.70;;;2.33;;
14776;SDS011;7480;43.124;25.686;2023-04-25T07:10:15;3.50;;;2.10;;
14776;SDS011;7480;43.124;25.686;2023-04-25T07:12:42;2.30;;;2.10;;
14776;SDS011;7480;43.124;25.686;2023-04-25T07:15:09;2.37;;;2.07;;
14776;SDS011;7480;43.124;25.686;2023-04-25T07:17:36;2.57;;;2.30;;
14776;SDS011;7480;43.124;25.686;2023-04-25T07:20:04;2.43;;;2.07;;
14776;SDS011;7480;43.124;25.686;2023-04-25T07:22:32;2.43;;;2.10;;
14776;SDS011;7480;43.124;25.686;2023-04-25T07:24:59;3.27;;;2.40;;
14776;SDS011;7480;43.124;25.686;2023-04-25T07:27:26;3.40;;;2.10;;
14776;SDS011;7480;43.124;25.686;2023-04-25T07:29:53;3.70;;;2.20;;
14776;SDS011;7480;43.124;25.686;2023-04-25T07:32:19;4.80;;;2.17;;
14776;SDS011;7480;43.124;25.686;2023-04-25T07:34:46;2.60;;;2.03;;
14776;SDS011;7480;43.124;25.686;2023-04-25T07:37:13;2.87;;;1.90;;
14776;SDS011;7480;43.124;25.686;2023-04-25T07:39:40;2.00;;;1.73;;
14776;SDS011;7480;43.124;25.686;2023-04-25T07:42:08;1.90;;;1.60;;
14776;SDS011;7480;43.124;25.686;2023-04-25T07:44:34;2.30;;;1.83;;
14776;SDS011;7480;43.124;25.686;2023-04-25T07:47:05;1.70;;;1.60;;
14776;SDS011;7480;43.124;25.686;2023-04-25T07:49:35;5.47;;;1.97;;
14776;SDS011;7480;43.124;25.686;2023-04-25T07:52:03;1.60;;;1.50;;
14776;SDS011;7480;43.124;25.686;2023-04-25T07:54:32;3.37;;;2.10;;
14776;SDS011;7480;43.124;25.686;2023-04-25T07:56:59;6.10;;;3.87;;
14776;SDS011;7480;43.124;25.686;2023-04-25T07:59:26;8.90;;;5.00;;
14776;SDS011;7480;43.124;25.686;2023-04-25T08:01:55;8.57;;;5.93;;
14776;SDS011;7480;43.124;25.686;2023-04-25T08:04:23;6.30;;;4.30;;
14776;SDS011;7480;43.124;25.686;2023-04-25T08:06:52;9.47;;;5.27;;
14776;SDS011;7480;43.124;25.686;2023-04-25T08:09:20;9.63;;;5.43;;
14776;SDS011;7480;43.124;25.686;2023-04-25T08:11:47;5.30;;;4.70;;
14776;SDS011;7480;43.124;25.686;2023-04-25T08:14:14;4.83;;;3.97;;
14776;SDS011;7480;43.124;25.686;2023-04-25T08:16:40;4.77;;;3.50;;
14776;SDS011;7480;43.124;25.686;2023-04-25T08:19:09;3.20;;;2.53;;
14776;SDS011;7480;43.124;25.686;2023-04-25T08:21:37;3.27;;;3.00;;
14776;SDS011;7480;43.124;25.686;2023-04-25T08:24:03;4.27;;;3.43;;
14776;SDS011;7480;43.124;25.686;2023-04-25T08:26:30;4.17;;;3.40;;
14776;SDS011;7480;43.124;25.686;2023-04-25T08:28:57;3.80;;;3.07;;
14776;SDS011;7480;43.124;25.686;2023-04-25T08:31:24;4.30;;;2.97;;
14776;SDS011;7480;43.124;25.686;2023-04-25T08:33:50;3.80;;;3.03;;
14776;SDS011;7480;43.124;25.686;2023-04-25T08:36:18;4.43;;;3.60;;
14776;SDS011;7480;43.124;25.686;2023-04-25T08:39:03;3.47;;;3.10;;
14776;SDS011;7480;43.124;25.686;2023-04-25T08:41:30;5.37;;;2.80;;
14776;SDS011;7480;43.124;25.686;2023-04-25T08:43:56;4.37;;;2.60;;
14776;SDS011;7480;43.124;25.686;2023-04-25T08:46:26;2.13;;;1.93;;
14776;SDS011;7480;43.124;25.686;2023-04-25T08:48:53;3.83;;;2.13;;
14776;SDS011;7480;43.124;25.686;2023-04-25T08:51:24;3.20;;;2.37;;
14776;SDS011;7480;43.124;25.686;2023-04-25T08:53:52;2.60;;;2.40;;
14776;SDS011;7480;43.124;25.686;2023-04-25T08:56:23;2.53;;;2.33;;
14776;SDS011;7480;43.124;25.686;2023-04-25T08:58:51;2.60;;;2.40;;
14776;SDS011;7480;43.124;25.686;2023-04-25T09:01:18;2.50;;;2.30;;
14776;SDS011;7480;43.124;25.686;2023-04-25T09:03:45;4.10;;;2.40;;
14776;SDS011;7480;43.124;25.686;2023-04-25T09:06:13;4.00;;;3.20;;
14776;SDS011;7480;43.124;25.686;2023-04-25T09:08:42;6.00;;;3.80;;
14776;SDS011;7480;43.124;25.686;2023-04-25T09:11:09;4.27;;;3.53;;
14776;SDS011;7480;43.124;25.686;2023-04-25T09:13:35;4.87;;;3.20;;
14776;SDS011;7480;43.124;25.686;2023-04-25T09:16:02;5.30;;;2.80;;
14776;SDS011;7480;43.124;25.686;2023-04-25T09:18:32;2.27;;;1.87;;
14776;SDS011;7480;43.124;25.686;2023-04-25T09:21:07;1.90;;;1.77;;
14776;SDS011;7480;43.124;25.686;2023-04-25T09:23:41;3.33;;;2.00;;
14776;SDS011;7480;43.124;25.686;2023-04-25T09:26:09;2.30;;;2.10;;
14776;SDS011;7480;43.124;25.686;2023-04-25T09:28:36;2.90;;;2.00;;
14776;SDS011;7480;43.124;25.686;2023-04-25T09:31:04;2.63;;;2.23;;
14776;SDS011;7480;43.124;25.686;2023-04-25T09:33:31;2.30;;;2.07;;
14776;SDS011;7480;43.124;25.686;2023-04-25T09:36:06;2.37;;;1.80;;
14776;SDS011;7480;43.124;25.686;2023-04-25T09:38:41;2.63;;;1.87;;
14776;SDS011;7480;43.124;25.686;2023-04-25T09:41:09;3.57;;;2.13;;
14776;SDS011;7480;43.124;25.686;2023-04-25T09:43:36;3.97;;;1.97;;
14776;SDS011;7480;43.124;25.686;2023-04-25T09:46:13;1.90;;;1.80;;
14776;SDS011;7480;43.124;25.686;2023-04-25T09:48:39;2.03;;;1.90;;
14776;SDS011;7480;43.124;25.686;2023-04-25T09:51:10;2.17;;;1.50;;
14776;SDS011;7480;43.124;25.686;2023-04-25T09:53:47;5.30;;;2.00;;
14776;SDS011;7480;43.124;25.686;2023-04-25T09:56:18;1.93;;;1.80;;
14776;SDS011;7480;43.124;25.686;2023-04-25T09:58:46;1.83;;;1.63;;
14776;SDS011;7480;43.124;25.686;2023-04-25T10:01:13;5.18;;;1.38;;
14776;SDS011;7480;43.124;25.686;2023-04-25T10:03:41;2.33;;;1.40;;
14776;SDS011;7480;43.124;25.686;2023-04-25T10:06:11;2.73;;;1.47;;
14776;SDS011;7480;43.124;25.686;2023-04-25T10:08:39;2.50;;;1.70;;
14776;SDS011;7480;43.124;25.686;2023-04-25T10:11:06;1.53;;;1.43;;
14776;SDS011;7480;43.124;25.686;2023-04-25T10:13:35;2.00;;;1.23;;
14776;SDS011;7480;43.124;25.686;2023-04-25T10:16:02;1.40;;;1.30;;
14776;SDS011;7480;43.124;25.686;2023-04-25T10:18:31;3.27;;;1.50;;
14776;SDS011;7480;43.124;25.686;2023-04-25T10:20:59;2.23;;;1.50;;
14776;SDS011;7480;43.124;25.686;2023-04-25T10:23:27;2.90;;;1.73;;
14776;SDS011;7480;43.124;25.686;2023-04-25T10:25:53;1.97;;;1.87;;
14776;SDS011;7480;43.124;25.686;2023-04-25T10:28:20;1.77;;;1.63;;
14776;SDS011;7480;43.124;25.686;2023-04-25T10:31:00;2.00;;;1.70;;
14776;SDS011;7480;43.124;25.686;2023-04-25T10:33:40;8.80;;;2.07;;
14776;SDS011;7480;43.124;25.686;2023-04-25T10:36:11;4.13;;;1.60;;
14776;SDS011;7480;43.124;25.686;2023-04-25T10:38:39;1.53;;;1.43;;
14776;SDS011;7480;43.124;25.686;2023-04-25T10:41:07;3.60;;;2.00;;
14776;SDS011;7480;43.124;25.686;2023-04-25T10:43:42;4.23;;;2.73;;
14776;SDS011;7480;43.124;25.686;2023-04-25T10:46:24;4.17;;;2.80;;
14776;SDS011;7480;43.124;25.686;2023-04-25T10:51:26;4.97;;;3.00;;
14776;SDS011;7480;43.124;25.686;2023-04-25T10:54:06;7.20;;;5.17;;
14776;SDS011;7480;43.124;25.686;2023-04-25T10:56:38;4.20;;;3.10;;
14776;SDS011;7480;43.124;25.686;2023-04-25T11:01:39;6.03;;;2.70;;
14776;SDS011;7480;43.124;25.686;2023-04-25T11:09:33;3.87;;;2.67;;
14776;SDS011;7480;43.124;25.686;2023-04-25T11:12:00;4.27;;;2.60;;
14776;SDS011;7480;43.124;25.686;2023-04-25T11:14:27;3.47;;;3.17;;
14776;SDS011;7480;43.124;25.686;2023-04-25T11:16:54;3.50;;;2.80;;
14776;SDS011;7480;43.124;25.686;2023-04-25T11:19:26;3.20;;;2.80;;
14776;SDS011;7480;43.124;25.686;2023-04-25T11:21:56;6.37;;;3.93;;
14776;SDS011;7480;43.124;25.686;2023-04-25T11:24:27;6.13;;;4.30;;
14776;SDS011;7480;43.124;25.686;2023-04-25T11:26:54;4.75;;;3.75;;
14776;SDS011;7480;43.124;25.686;2023-04-25T11:29:22;5.00;;;4.07;;
14776;SDS011;7480;43.124;25.686;2023-04-25T11:31:50;5.03;;;3.50;;
14776;SDS011;7480;43.124;25.686;2023-04-25T11:34:17;4.63;;;3.80;;
14776;SDS011;7480;43.124;25.686;2023-04-25T11:36:45;3.73;;;3.17;;
14776;SDS011;7480;43.124;25.686;2023-04-25T11:39:12;4.90;;;3.40;;
14776;SDS011;7480;43.124;25.686;2023-04-25T11:41:39;6.07;;;3.60;;
14776;SDS011;7480;43.124;25.686;2023-04-25T11:44:09;4.23;;;3.00;;
14776;SDS011;7480;43.124;25.686;2023-04-25T11:46:36;4.80;;;3.40;;
14776;SDS011;7480;43.124;25.686;2023-04-25T11:49:03;4.03;;;3.37;;
14776;SDS011;7480;43.124;25.686;2023-04-25T11:51:37;4.43;;;3.13;;
14776;SDS011;7480;43.124;25.686;2023-04-25T11:54:05;4.97;;;3.00;;
14776;SDS011;7480;43.124;25.686;2023-04-25T11:56:32;5.17;;;3.50;;
14776;SDS011;7480;43.124;25.686;2023-04-25T11:59:00;5.93;;;2.70;;
14776;SDS011;7480;43.124;25.686;2023-04-25T12:01:31;3.17;;;2.37;;
14776;SDS011;7480;43.124;25.686;2023-04-25T12:04:14;3.67;;;2.60;;
14776;SDS011;7480;43.124;25.686;2023-04-25T12:06:43;2.73;;;2.50;;
14776;SDS011;7480;43.124;25.686;2023-04-25T12:09:14;3.20;;;2.90;;
14776;SDS011;7480;43.124;25.686;2023-04-25T12:11:54;3.43;;;2.80;;
14776;SDS011;7480;43.124;25.686;2023-04-25T12:14:31;4.03;;;2.90;;
14776;SDS011;7480;43.124;25.686;2023-04-25T12:17:02;3.00;;;2.70;;
14776;SDS011;7480;43.124;25.686;2023-04-25T12:19:34;3.13;;;2.80;;
14776;SDS011;7480;43.124;25.686;2023-04-25T12:22:02;3.43;;;2.37;;
14776;SDS011;7480;43.124;25.686;2023-04-25T12:24:33;2.50;;;2.27;;
14776;SDS011;7480;43.124;25.686;2023-04-25T12:27:05;1.60;;;1.50;;
14776;SDS011;7480;43.124;25.686;2023-04-25T12:29:34;1.80;;;1.70;;
14776;SDS011;7480;43.124;25.686;2023-04-25T12:32:14;5.97;;;2.40;;
14776;SDS011;7480;43.124;25.686;2023-04-25T12:34:41;3.40;;;2.57;;
14776;SDS011;7480;43.124;25.686;2023-04-25T12:37:08;3.70;;;2.10;;
14776;SDS011;7480;43.124;25.686;2023-04-25T12:39:35;2.40;;;2.20;;
14776;SDS011;7480;43.124;25.686;2023-04-25T12:42:02;3.13;;;1.93;;
14776;SDS011;7480;43.124;25.686;2023-04-25T12:44:33;3.20;;;2.17;;
14776;SDS011;7480;43.124;25.686;2023-04-25T12:47:00;2.57;;;1.87;;
14776;SDS011;7480;43.124;25.686;2023-04-25T12:49:27;2.20;;;1.90;;
14776;SDS011;7480;43.124;25.686;2023-04-25T12:51:53;3.20;;;2.30;;
14776;SDS011;7480;43.124;25.686;2023-04-25T12:54:20;4.63;;;2.13;;
14776;SDS011;7480;43.124;25.686;2023-04-25T12:56:47;1.70;;;1.60;;
14776;SDS011;7480;43.124;25.686;2023-04-25T12:59:14;2.50;;;1.40;;
14776;SDS011;7480;43.124;25.686;2023-04-25T13:01:40;2.00;;;1.90;;
14776;SDS011;7480;43.124;25.686;2023-04-25T13:04:07;2.93;;;1.80;;
14776;SDS011;7480;43.124;25.686;2023-04-25T13:06:34;3.20;;;2.20;;
14776;SDS011;7480;43.124;25.686;2023-04-25T13:09:01;3.00;;;2.20;;
14776;SDS011;7480;43.124;25.686;2023-04-25T13:11:29;3.87;;;2.33;;
14776;SDS011;7480;43.124;25.686;2023-04-25T13:13:56;1.60;;;1.50;;
14776;SDS011;7480;43.124;25.686;2023-04-25T13:16:22;2.33;;;2.03;;
14776;SDS011;7480;43.124;25.686;2023-04-25T13:18:49;4.10;;;2.20;;
14776;SDS011;7480;43.124;25.686;2023-04-25T13:21:16;2.23;;;1.80;;
14776;SDS011;7480;43.124;25.686;2023-04-25T13:23:42;3.10;;;2.20;;
14776;SDS011;7480;43.124;25.686;2023-04-25T13:26:10;5.97;;;2.53;;
14776;SDS011;7480;43.124;25.686;2023-04-25T13:28:37;2.33;;;2.13;;
14776;SDS011;7480;43.124;25.686;2023-04-25T13:31:04;3.55;;;2.67;;
14776;SDS011;7480;43.124;25.686;2023-04-25T13:33:31;3.30;;;2.63;;
14776;SDS011;7480;43.124;25.686;2023-04-25T13:35:58;4.13;;;2.47;;
14776;SDS011;7480;43.124;25.686;2023-04-25T13:38:24;5.27;;;2.40;;
14776;SDS011;7480;43.124;25.686;2023-04-25T13:40:52;3.90;;;2.63;;
14776;SDS011;7480;43.124;25.686;2023-04-25T13:43:19;4.43;;;2.67;;
14776;SDS011;7480;43.124;25.686;2023-04-25T13:45:51;4.03;;;3.20;;
14776;SDS011;7480;43.124;25.686;2023-04-25T13:48:18;5.27;;;3.20;;
14776;SDS011;7480;43.124;25.686;2023-04-25T13:50:45;4.13;;;3.70;;
14776;SDS011;7480;43.124;25.686;2023-04-25T13:53:12;4.97;;;4.40;;
14776;SDS011;7480;43.124;25.686;2023-04-25T13:55:39;3.50;;;3.20;;
14776;SDS011;7480;43.124;25.686;2023-04-25T13:58:05;4.47;;;3.30;;
14776;SDS011;7480;43.124;25.686;2023-04-25T14:00:36;3.80;;;3.40;;
14776;SDS011;7480;43.124;25.686;2023-04-25T14:03:09;8.53;;;5.10;;
14776;SDS011;7480;43.124;25.686;2023-04-25T14:05:36;5.67;;;4.80;;
14776;SDS011;7480;43.124;25.686;2023-04-25T14:08:08;5.97;;;4.73;;
14776;SDS011;7480;43.124;25.686;2023-04-25T14:10:35;5.47;;;4.10;;
14776;SDS011;7480;43.124;25.686;2023-04-25T14:13:02;5.63;;;3.60;;
14776;SDS011;7480;43.124;25.686;2023-04-25T14:15:31;8.13;;;5.30;;
14776;SDS011;7480;43.124;25.686;2023-04-25T14:17:58;3.53;;;3.10;;
14776;SDS011;7480;43.124;25.686;2023-04-25T14:20:25;7.93;;;4.37;;
14776;SDS011;7480;43.124;25.686;2023-04-25T14:22:52;3.80;;;3.07;;
14776;SDS011;7480;43.124;25.686;2023-04-25T14:25:20;3.20;;;2.77;;
14776;SDS011;7480;43.124;25.686;2023-04-25T14:27:47;4.50;;;3.80;;
14776;SDS011;7480;43.124;25.686;2023-04-25T14:30:17;3.53;;;2.77;;
14776;SDS011;7480;43.124;25.686;2023-04-25T14:32:44;3.37;;;3.03;;
14776;SDS011;7480;43.124;25.686;2023-04-25T14:35:11;7.07;;;2.90;;
14776;SDS011;7480;43.124;25.686;2023-04-25T14:37:39;4.67;;;3.20;;
14776;SDS011;7480;43.124;25.686;2023-04-25T14:40:06;4.40;;;2.73;;
14776;SDS011;7480;43.124;25.686;2023-04-25T14:42:44;6.16;;;4.47;;
14776;SDS011;7480;43.124;25.686;2023-04-25T14:45:11;2.73;;;1.87;;
14776;SDS011;7480;43.124;25.686;2023-04-25T14:47:38;1.27;;;1.10;;
14776;SDS011;7480;43.124;25.686;2023-04-25T14:50:05;0.87;;;0.87;;
14776;SDS011;7480;43.124;25.686;2023-04-25T14:52:33;2.13;;;1.40;;
14776;SDS011;7480;43.124;25.686;2023-04-25T14:54:59;2.57;;;1.63;;
14776;SDS011;7480;43.124;25.686;2023-04-25T14:57:28;4.43;;;1.80;;